sensor_id;sensor_type;location;lat;lon;timestamp;P1;durP1;ratioP1;P2;durP2;ratioP2
830;SDS011;397;50.564;7.272;2022-11-15T00:00:55;13.53;;;11.60;;
830;SDS011;397;50.564;7.272;2022-11-15T00:03:24;11.60;;;10.23;;
830;SDS011;397;50.564;7.272;2022-11-15T00:05:53;12.17;;;9.93;;
830;SDS011;397;50.564;7.272;2022-11-15T00:08:21;13.93;;;11.10;;
830;SDS011;397;50.564;7.272;2022-11-15T00:10:55;15.90;;;10.50;;
830;SDS011;397;50.564;7.272;2022-11-15T00:13:23;12.13;;;10.73;;
830;SDS011;397;50.564;7.272;2022-11-15T00:15:51;15.63;;;10.77;;
830;SDS011;397;50.564;7.272;2022-11-15T00:18:19;12.00;;;10.03;;
830;SDS011;397;50.564;7.272;2022-11-15T00:20:46;11.17;;;9.70;;
830;SDS011;397;50.564;7.272;2022-11-15T00:23:14;10.57;;;7.80;;
830;SDS011;397;50.564;7.272;2022-11-15T00:25:42;9.40;;;8.40;;
830;SDS011;397;50.564;7.272;2022-11-15T00:28:09;11.83;;;10.63;;
830;SDS011;397;50.564;7.272;2022-11-15T00:30:37;15.50;;;11.00;;
830;SDS011;397;50.564;7.272;2022-11-15T00:33:04;13.60;;;10.97;;
830;SDS011;397;50.564;7.272;2022-11-15T00:35:34;12.97;;;10.67;;
830;SDS011;397;50.564;7.272;2022-11-15T00:38:01;14.93;;;11.67;;
830;SDS011;397;50.564;7.272;2022-11-15T00:40:29;14.50;;;12.77;;
830;SDS011;397;50.564;7.272;2022-11-15T00:42:57;13.03;;;11.60;;
830;SDS011;397;50.564;7.272;2022-11-15T00:45:25;12.30;;;11.00;;
830;SDS011;397;50.564;7.272;2022-11-15T00:47:53;12.47;;;11.17;;
830;SDS011;397;50.564;7.272;2022-11-15T00:50:20;12.30;;;11.00;;
830;SDS011;397;50.564;7.272;2022-11-15T00:52:48;10.53;;;9.57;;
830;SDS011;397;50.564;7.272;2022-11-15T00:55:15;10.67;;;9.57;;
830;SDS011;397;50.564;7.272;2022-11-15T00:57:44;11.20;;;10.10;;
830;SDS011;397;50.564;7.272;2022-11-15T01:00:12;14.70;;;10.00;;
830;SDS011;397;50.564;7.272;2022-11-15T01:02:40;11.33;;;10.13;;
830;SDS011;397;50.564;7.272;2022-11-15T01:05:08;11.57;;;10.40;;
830;SDS011;397;50.564;7.272;2022-11-15T01:07:35;9.07;;;8.20;;
830;SDS011;397;50.564;7.272;2022-11-15T01:10:03;10.53;;;9.23;;
830;SDS011;397;50.564;7.272;2022-11-15T01:12:31;13.30;;;10.43;;
830;SDS011;397;50.564;7.272;2022-11-15T01:14:59;12.47;;;11.07;;
830;SDS011;397;50.564;7.272;2022-11-15T01:17:27;13.33;;;11.93;;
830;SDS011;397;50.564;7.272;2022-11-15T01:19:55;16.73;;;11.03;;
830;SDS011;397;50.564;7.272;2022-11-15T01:22:22;13.13;;;11.03;;
830;SDS011;397;50.564;7.272;2022-11-15T01:24:50;13.30;;;11.03;;
830;SDS011;397;50.564;7.272;2022-11-15T01:27:18;12.23;;;10.77;;
830;SDS011;397;50.564;7.272;2022-11-15T01:29:45;13.17;;;10.47;;
830;SDS011;397;50.564;7.272;2022-11-15T01:32:13;11.80;;;10.60;;
830;SDS011;397;50.564;7.272;2022-11-15T01:34:40;13.50;;;11.33;;
830;SDS011;397;50.564;7.272;2022-11-15T01:37:08;12.80;;;11.50;;
830;SDS011;397;50.564;7.272;2022-11-15T01:39:35;13.03;;;10.53;;
830;SDS011;397;50.564;7.272;2022-11-15T01:42:03;13.00;;;11.70;;
830;SDS011;397;50.564;7.272;2022-11-15T01:47:15;16.93;;;10.13;;
830;SDS011;397;50.564;7.272;2022-11-15T01:49:52;11.60;;;10.57;;
830;SDS011;397;50.564;7.272;2022-11-15T01:52:18;12.40;;;10.13;;
830;SDS011;397;50.564;7.272;2022-11-15T01:54:53;12.63;;;11.27;;
830;SDS011;397;50.564;7.272;2022-11-15T01:57:18;12.73;;;9.40;;
830;SDS011;397;50.564;7.272;2022-11-15T01:59:46;10.20;;;9.20;;
830;SDS011;397;50.564;7.272;2022-11-15T02:02:14;12.60;;;10.37;;
830;SDS011;397;50.564;7.272;2022-11-15T02:04:45;10.30;;;9.37;;
830;SDS011;397;50.564;7.272;2022-11-15T02:07:19;10.80;;;9.80;;
830;SDS011;397;50.564;7.272;2022-11-15T02:09:44;10.70;;;9.70;;
830;SDS011;397;50.564;7.272;2022-11-15T02:12:18;11.00;;;9.73;;
830;SDS011;397;50.564;7.272;2022-11-15T02:14:45;10.30;;;9.23;;
830;SDS011;397;50.564;7.272;2022-11-15T02:39:17;12.07;;;10.97;;
830;SDS011;397;50.564;7.272;2022-11-15T02:42:04;12.27;;;9.90;;
830;SDS011;397;50.564;7.272;2022-11-15T02:44:39;9.93;;;9.03;;
830;SDS011;397;50.564;7.272;2022-11-15T02:47:10;11.03;;;9.70;;
830;SDS011;397;50.564;7.272;2022-11-15T02:49:40;12.37;;;11.17;;
830;SDS011;397;50.564;7.272;2022-11-15T02:52:16;10.83;;;9.70;;
830;SDS011;397;50.564;7.272;2022-11-15T02:54:54;10.77;;;9.17;;
830;SDS011;397;50.564;7.272;2022-11-15T03:00:17;10.60;;;9.50;;
830;SDS011;397;50.564;7.272;2022-11-15T03:05:37;10.23;;;9.23;;
830;SDS011;397;50.564;7.272;2022-11-15T03:08:10;10.83;;;9.73;;
830;SDS011;397;50.564;7.272;2022-11-15T03:11:10;9.33;;;8.43;;
830;SDS011;397;50.564;7.272;2022-11-15T03:13:48;10.20;;;8.70;;
830;SDS011;397;50.564;7.272;2022-11-15T03:18:52;9.90;;;8.40;;
830;SDS011;397;50.564;7.272;2022-11-15T03:21:21;8.30;;;7.50;;
830;SDS011;397;50.564;7.272;2022-11-15T03:23:50;9.27;;;8.30;;
830;SDS011;397;50.564;7.272;2022-11-15T03:26:19;9.90;;;8.90;;
830;SDS011;397;50.564;7.272;2022-11-15T03:28:54;11.83;;;9.50;;
830;SDS011;397;50.564;7.272;2022-11-15T03:31:23;10.10;;;9.07;;
830;SDS011;397;50.564;7.272;2022-11-15T03:34:14;9.73;;;8.50;;
830;SDS011;397;50.564;7.272;2022-11-15T03:36:42;9.90;;;8.83;;
830;SDS011;397;50.564;7.272;2022-11-15T03:39:10;8.70;;;7.90;;
830;SDS011;397;50.564;7.272;2022-11-15T03:41:40;10.30;;;8.07;;
830;SDS011;397;50.564;7.272;2022-11-15T03:44:36;10.20;;;8.67;;
830;SDS011;397;50.564;7.272;2022-11-15T03:47:31;10.20;;;7.57;;
830;SDS011;397;50.564;7.272;2022-11-15T03:50:04;10.07;;;7.80;;
830;SDS011;397;50.564;7.272;2022-11-15T03:52:33;8.00;;;7.20;;
830;SDS011;397;50.564;7.272;2022-11-15T03:55:03;7.17;;;6.43;;
830;SDS011;397;50.564;7.272;2022-11-15T03:57:32;6.67;;;6.07;;
830;SDS011;397;50.564;7.272;2022-11-15T04:00:00;6.43;;;5.83;;
830;SDS011;397;50.564;7.272;2022-11-15T04:02:27;8.33;;;7.27;;
830;SDS011;397;50.564;7.272;2022-11-15T04:04:55;8.03;;;6.80;;
830;SDS011;397;50.564;7.272;2022-11-15T04:07:22;7.30;;;6.53;;
830;SDS011;397;50.564;7.272;2022-11-15T04:09:50;6.97;;;6.27;;
830;SDS011;397;50.564;7.272;2022-11-15T04:12:31;8.73;;;5.80;;
830;SDS011;397;50.564;7.272;2022-11-15T04:15:04;7.60;;;5.50;;
830;SDS011;397;50.564;7.272;2022-11-15T04:17:40;8.30;;;6.70;;
830;SDS011;397;50.564;7.272;2022-11-15T04:23:06;6.73;;;4.10;;
830;SDS011;397;50.564;7.272;2022-11-15T04:25:54;5.90;;;4.63;;
830;SDS011;397;50.564;7.272;2022-11-15T04:28:22;5.47;;;4.67;;
830;SDS011;397;50.564;7.272;2022-11-15T04:30:50;4.40;;;3.93;;
830;SDS011;397;50.564;7.272;2022-11-15T04:33:18;6.87;;;4.70;;
830;SDS011;397;50.564;7.272;2022-11-15T04:35:45;4.73;;;4.00;;
830;SDS011;397;50.564;7.272;2022-11-15T04:38:14;5.27;;;4.40;;
830;SDS011;397;50.564;7.272;2022-11-15T04:40:42;5.20;;;4.40;;
830;SDS011;397;50.564;7.272;2022-11-15T04:43:09;7.20;;;5.20;;
830;SDS011;397;50.564;7.272;2022-11-15T04:45:37;5.57;;;4.23;;
830;SDS011;397;50.564;7.272;2022-11-15T04:48:04;4.43;;;4.03;;
830;SDS011;397;50.564;7.272;2022-11-15T04:50:32;4.40;;;3.80;;
830;SDS011;397;50.564;7.272;2022-11-15T04:52:59;5.70;;;4.23;;
830;SDS011;397;50.564;7.272;2022-11-15T04:55:27;5.27;;;4.70;;
830;SDS011;397;50.564;7.272;2022-11-15T04:58:00;4.83;;;4.23;;
830;SDS011;397;50.564;7.272;2022-11-15T05:00:29;5.10;;;4.30;;
830;SDS011;397;50.564;7.272;2022-11-15T05:02:57;6.77;;;4.27;;
830;SDS011;397;50.564;7.272;2022-11-15T05:05:43;5.73;;;5.17;;
830;SDS011;397;50.564;7.272;2022-11-15T05:08:10;7.23;;;5.00;;
830;SDS011;397;50.564;7.272;2022-11-15T05:10:37;4.70;;;4.30;;
830;SDS011;397;50.564;7.272;2022-11-15T05:13:05;6.83;;;5.07;;
830;SDS011;397;50.564;7.272;2022-11-15T05:15:32;5.50;;;5.00;;
830;SDS011;397;50.564;7.272;2022-11-15T05:18:00;5.27;;;4.37;;
830;SDS011;397;50.564;7.272;2022-11-15T05:20:27;4.60;;;3.90;;
830;SDS011;397;50.564;7.272;2022-11-15T05:22:55;4.77;;;4.20;;
830;SDS011;397;50.564;7.272;2022-11-15T05:25:22;5.80;;;5.03;;
830;SDS011;397;50.564;7.272;2022-11-15T05:27:50;5.60;;;4.90;;
830;SDS011;397;50.564;7.272;2022-11-15T05:30:18;4.70;;;4.10;;
830;SDS011;397;50.564;7.272;2022-11-15T05:32:45;4.33;;;3.93;;
830;SDS011;397;50.564;7.272;2022-11-15T05:35:20;4.33;;;3.93;;
830;SDS011;397;50.564;7.272;2022-11-15T05:37:44;4.73;;;3.97;;
830;SDS011;397;50.564;7.272;2022-11-15T05:40:12;4.10;;;3.70;;
830;SDS011;397;50.564;7.272;2022-11-15T05:42:39;4.60;;;3.90;;
830;SDS011;397;50.564;7.272;2022-11-15T05:45:07;4.60;;;3.80;;
830;SDS011;397;50.564;7.272;2022-11-15T05:47:44;5.53;;;3.60;;
830;SDS011;397;50.564;7.272;2022-11-15T05:50:33;4.70;;;4.20;;
830;SDS011;397;50.564;7.272;2022-11-15T05:53:03;4.27;;;3.87;;
830;SDS011;397;50.564;7.272;2022-11-15T05:55:31;5.00;;;3.90;;
830;SDS011;397;50.564;7.272;2022-11-15T05:57:59;5.77;;;3.47;;
830;SDS011;397;50.564;7.272;2022-11-15T06:00:28;3.40;;;2.97;;
830;SDS011;397;50.564;7.272;2022-11-15T06:02:55;5.80;;;3.93;;
830;SDS011;397;50.564;7.272;2022-11-15T06:05:23;3.87;;;3.27;;
830;SDS011;397;50.564;7.272;2022-11-15T06:07:50;3.83;;;3.43;;
830;SDS011;397;50.564;7.272;2022-11-15T06:10:18;4.67;;;3.27;;
830;SDS011;397;50.564;7.272;2022-11-15T06:12:45;4.73;;;3.63;;
830;SDS011;397;50.564;7.272;2022-11-15T06:15:13;3.80;;;2.90;;
830;SDS011;397;50.564;7.272;2022-11-15T06:17:40;3.33;;;3.00;;
830;SDS011;397;50.564;7.272;2022-11-15T06:20:08;6.00;;;2.83;;
830;SDS011;397;50.564;7.272;2022-11-15T06:22:36;4.20;;;3.80;;
830;SDS011;397;50.564;7.272;2022-11-15T06:25:04;3.60;;;2.50;;
830;SDS011;397;50.564;7.272;2022-11-15T06:27:31;2.87;;;2.57;;
830;SDS011;397;50.564;7.272;2022-11-15T06:29:59;4.30;;;3.10;;
830;SDS011;397;50.564;7.272;2022-11-15T06:32:26;5.30;;;3.20;;
830;SDS011;397;50.564;7.272;2022-11-15T06:34:56;4.07;;;3.67;;
830;SDS011;397;50.564;7.272;2022-11-15T06:37:23;5.60;;;4.30;;
830;SDS011;397;50.564;7.272;2022-11-15T06:39:51;8.20;;;3.57;;
830;SDS011;397;50.564;7.272;2022-11-15T06:42:18;4.30;;;3.40;;
830;SDS011;397;50.564;7.272;2022-11-15T06:44:46;5.10;;;3.83;;
830;SDS011;397;50.564;7.272;2022-11-15T06:47:13;4.87;;;4.37;;
830;SDS011;397;50.564;7.272;2022-11-15T06:49:41;4.27;;;3.27;;
830;SDS011;397;50.564;7.272;2022-11-15T06:52:08;6.10;;;3.30;;
830;SDS011;397;50.564;7.272;2022-11-15T06:54:36;4.10;;;3.03;;
830;SDS011;397;50.564;7.272;2022-11-15T06:57:04;6.37;;;3.20;;
830;SDS011;397;50.564;7.272;2022-11-15T06:59:31;3.40;;;2.63;;
830;SDS011;397;50.564;7.272;2022-11-15T07:01:59;4.10;;;2.80;;
830;SDS011;397;50.564;7.272;2022-11-15T07:04:26;4.00;;;3.27;;
830;SDS011;397;50.564;7.272;2022-11-15T07:09:41;4.50;;;3.60;;
830;SDS011;397;50.564;7.272;2022-11-15T07:12:08;5.70;;;4.60;;
830;SDS011;397;50.564;7.272;2022-11-15T07:14:36;5.30;;;4.40;;
830;SDS011;397;50.564;7.272;2022-11-15T07:17:04;6.67;;;4.57;;
830;SDS011;397;50.564;7.272;2022-11-15T07:19:32;5.33;;;4.50;;
830;SDS011;397;50.564;7.272;2022-11-15T07:21:59;6.20;;;5.07;;
830;SDS011;397;50.564;7.272;2022-11-15T07:24:27;5.90;;;4.87;;
830;SDS011;397;50.564;7.272;2022-11-15T07:26:54;6.00;;;5.40;;
830;SDS011;397;50.564;7.272;2022-11-15T07:29:21;7.10;;;6.40;;
830;SDS011;397;50.564;7.272;2022-11-15T07:31:49;7.57;;;5.57;;
830;SDS011;397;50.564;7.272;2022-11-15T07:34:17;6.80;;;6.10;;
830;SDS011;397;50.564;7.272;2022-11-15T07:36:45;5.70;;;5.20;;
830;SDS011;397;50.564;7.272;2022-11-15T07:39:13;7.07;;;6.37;;
830;SDS011;397;50.564;7.272;2022-11-15T07:41:40;7.13;;;5.60;;
830;SDS011;397;50.564;7.272;2022-11-15T07:44:09;6.60;;;6.00;;
830;SDS011;397;50.564;7.272;2022-11-15T07:46:36;6.87;;;6.17;;
830;SDS011;397;50.564;7.272;2022-11-15T07:49:04;6.30;;;5.70;;
830;SDS011;397;50.564;7.272;2022-11-15T07:51:31;7.50;;;6.80;;
830;SDS011;397;50.564;7.272;2022-11-15T07:53:59;7.27;;;6.30;;
830;SDS011;397;50.564;7.272;2022-11-15T07:56:26;9.77;;;6.33;;
830;SDS011;397;50.564;7.272;2022-11-15T07:58:54;8.33;;;7.50;;
830;SDS011;397;50.564;7.272;2022-11-15T08:01:21;8.10;;;6.23;;
830;SDS011;397;50.564;7.272;2022-11-15T08:03:49;7.13;;;6.43;;
830;SDS011;397;50.564;7.272;2022-11-15T08:06:16;6.50;;;5.90;;
830;SDS011;397;50.564;7.272;2022-11-15T08:08:44;5.20;;;4.70;;
830;SDS011;397;50.564;7.272;2022-11-15T08:11:13;5.77;;;5.17;;
830;SDS011;397;50.564;7.272;2022-11-15T08:13:40;6.10;;;5.50;;
830;SDS011;397;50.564;7.272;2022-11-15T08:16:08;6.07;;;4.20;;
830;SDS011;397;50.564;7.272;2022-11-15T08:18:37;4.60;;;3.90;;
830;SDS011;397;50.564;7.272;2022-11-15T08:21:05;5.50;;;4.40;;
830;SDS011;397;50.564;7.272;2022-11-15T08:23:32;5.70;;;3.47;;
830;SDS011;397;50.564;7.272;2022-11-15T08:26:03;3.97;;;3.40;;
830;SDS011;397;50.564;7.272;2022-11-15T08:28:31;4.70;;;3.00;;
830;SDS011;397;50.564;7.272;2022-11-15T08:30:59;3.30;;;2.73;;
830;SDS011;397;50.564;7.272;2022-11-15T08:33:27;3.70;;;2.50;;
830;SDS011;397;50.564;7.272;2022-11-15T08:35:59;5.95;;;2.50;;
830;SDS011;397;50.564;7.272;2022-11-15T08:38:27;3.60;;;2.33;;
830;SDS011;397;50.564;7.272;2022-11-15T08:41:01;2.73;;;2.07;;
830;SDS011;397;50.564;7.272;2022-11-15T08:43:31;3.40;;;2.13;;
830;SDS011;397;50.564;7.272;2022-11-15T08:45:59;3.20;;;1.87;;
830;SDS011;397;50.564;7.272;2022-11-15T08:48:26;4.70;;;3.00;;
830;SDS011;397;50.564;7.272;2022-11-15T08:50:54;3.30;;;2.53;;
830;SDS011;397;50.564;7.272;2022-11-15T08:53:22;3.47;;;2.10;;
830;SDS011;397;50.564;7.272;2022-11-15T08:55:50;2.30;;;1.63;;
830;SDS011;397;50.564;7.272;2022-11-15T08:58:17;2.10;;;1.50;;
830;SDS011;397;50.564;7.272;2022-11-15T09:00:45;3.53;;;1.70;;
830;SDS011;397;50.564;7.272;2022-11-15T09:03:12;3.23;;;2.10;;
830;SDS011;397;50.564;7.272;2022-11-15T09:05:40;3.93;;;2.37;;
830;SDS011;397;50.564;7.272;2022-11-15T09:08:08;6.77;;;2.20;;
830;SDS011;397;50.564;7.272;2022-11-15T09:10:37;2.83;;;2.00;;
830;SDS011;397;50.564;7.272;2022-11-15T09:13:04;3.93;;;2.33;;
830;SDS011;397;50.564;7.272;2022-11-15T09:15:31;3.53;;;2.70;;
830;SDS011;397;50.564;7.272;2022-11-15T09:17:59;5.10;;;2.90;;
830;SDS011;397;50.564;7.272;2022-11-15T09:20:26;3.73;;;2.33;;
830;SDS011;397;50.564;7.272;2022-11-15T09:22:54;5.03;;;2.70;;
830;SDS011;397;50.564;7.272;2022-11-15T09:25:23;4.10;;;2.07;;
830;SDS011;397;50.564;7.272;2022-11-15T09:27:51;3.13;;;2.57;;
830;SDS011;397;50.564;7.272;2022-11-15T09:30:18;3.53;;;2.57;;
830;SDS011;397;50.564;7.272;2022-11-15T09:32:46;5.17;;;2.50;;
830;SDS011;397;50.564;7.272;2022-11-15T09:35:13;4.67;;;2.43;;
830;SDS011;397;50.564;7.272;2022-11-15T09:37:41;3.30;;;2.60;;
830;SDS011;397;50.564;7.272;2022-11-15T09:40:12;3.77;;;3.10;;
830;SDS011;397;50.564;7.272;2022-11-15T09:45:37;4.47;;;2.30;;
830;SDS011;397;50.564;7.272;2022-11-15T09:51:17;4.77;;;2.40;;
830;SDS011;397;50.564;7.272;2022-11-15T09:53:43;4.40;;;1.60;;
830;SDS011;397;50.564;7.272;2022-11-15T09:56:22;2.57;;;1.53;;
830;SDS011;397;50.564;7.272;2022-11-15T10:01:45;4.17;;;1.90;;
830;SDS011;397;50.564;7.272;2022-11-15T10:04:17;4.87;;;2.00;;
830;SDS011;397;50.564;7.272;2022-11-15T10:06:47;3.67;;;1.80;;
830;SDS011;397;50.564;7.272;2022-11-15T10:09:23;3.20;;;1.43;;
830;SDS011;397;50.564;7.272;2022-11-15T10:11:51;5.03;;;1.60;;
830;SDS011;397;50.564;7.272;2022-11-15T10:14:23;4.20;;;2.03;;
830;SDS011;397;50.564;7.272;2022-11-15T10:19:54;3.50;;;1.57;;
830;SDS011;397;50.564;7.272;2022-11-15T10:22:41;3.27;;;1.80;;
830;SDS011;397;50.564;7.272;2022-11-15T10:25:17;4.60;;;2.13;;
830;SDS011;397;50.564;7.272;2022-11-15T10:27:54;3.50;;;1.97;;
830;SDS011;397;50.564;7.272;2022-11-15T10:30:28;2.60;;;1.60;;
830;SDS011;397;50.564;7.272;2022-11-15T10:33:16;6.43;;;2.33;;
830;SDS011;397;50.564;7.272;2022-11-15T10:41:20;5.43;;;2.00;;
830;SDS011;397;50.564;7.272;2022-11-15T10:47:04;7.43;;;2.00;;
830;SDS011;397;50.564;7.272;2022-11-15T10:49:22;2.87;;;1.73;;
830;SDS011;397;50.564;7.272;2022-11-15T10:51:48;4.87;;;2.27;;
830;SDS011;397;50.564;7.272;2022-11-15T10:54:23;3.83;;;2.20;;
830;SDS011;397;50.564;7.272;2022-11-15T10:56:52;4.90;;;1.70;;
830;SDS011;397;50.564;7.272;2022-11-15T10:59:32;3.20;;;1.67;;
830;SDS011;397;50.564;7.272;2022-11-15T11:02:02;5.00;;;1.80;;
830;SDS011;397;50.564;7.272;2022-11-15T11:04:37;3.90;;;2.10;;
830;SDS011;397;50.564;7.272;2022-11-15T11:07:02;2.80;;;2.10;;
830;SDS011;397;50.564;7.272;2022-11-15T11:09:32;3.73;;;2.10;;
830;SDS011;397;50.564;7.272;2022-11-15T11:12:02;5.50;;;2.20;;
830;SDS011;397;50.564;7.272;2022-11-15T11:14:31;6.60;;;2.10;;
830;SDS011;397;50.564;7.272;2022-11-15T11:22:34;3.53;;;1.97;;
830;SDS011;397;50.564;7.272;2022-11-15T11:25:15;3.47;;;2.20;;
830;SDS011;397;50.564;7.272;2022-11-15T11:27:59;6.43;;;2.77;;
830;SDS011;397;50.564;7.272;2022-11-15T11:33:22;4.00;;;3.20;;
830;SDS011;397;50.564;7.272;2022-11-15T11:38:41;5.93;;;3.37;;
830;SDS011;397;50.564;7.272;2022-11-15T11:41:37;4.23;;;3.00;;
830;SDS011;397;50.564;7.272;2022-11-15T11:44:06;3.10;;;2.73;;
830;SDS011;397;50.564;7.272;2022-11-15T11:46:55;4.57;;;4.10;;
830;SDS011;397;50.564;7.272;2022-11-15T11:49:36;5.23;;;3.83;;
830;SDS011;397;50.564;7.272;2022-11-15T11:57:41;4.10;;;2.43;;
830;SDS011;397;50.564;7.272;2022-11-15T12:00:21;6.17;;;3.00;;
830;SDS011;397;50.564;7.272;2022-11-15T12:05:40;4.00;;;2.93;;
830;SDS011;397;50.564;7.272;2022-11-15T12:08:25;3.27;;;2.60;;
830;SDS011;397;50.564;7.272;2022-11-15T12:16:31;5.00;;;3.63;;
830;SDS011;397;50.564;7.272;2022-11-15T12:19:01;9.03;;;7.00;;
830;SDS011;397;50.564;7.272;2022-11-15T12:21:42;4.77;;;4.10;;
830;SDS011;397;50.564;7.272;2022-11-15T12:27:13;6.53;;;5.13;;
830;SDS011;397;50.564;7.272;2022-11-15T12:29:47;9.70;;;5.60;;
830;SDS011;397;50.564;7.272;2022-11-15T12:35:21;6.30;;;3.75;;
830;SDS011;397;50.564;7.272;2022-11-15T12:38:03;5.87;;;4.13;;
830;SDS011;397;50.564;7.272;2022-11-15T12:40:35;6.30;;;4.70;;
830;SDS011;397;50.564;7.272;2022-11-15T12:45:44;4.43;;;3.73;;
830;SDS011;397;50.564;7.272;2022-11-15T12:58:47;9.90;;;7.30;;
830;SDS011;397;50.564;7.272;2022-11-15T13:07:03;10.03;;;9.07;;
830;SDS011;397;50.564;7.272;2022-11-15T13:14:57;13.53;;;9.70;;
830;SDS011;397;50.564;7.272;2022-11-15T13:17:30;5.07;;;4.57;;
830;SDS011;397;50.564;7.272;2022-11-15T13:22:40;4.63;;;3.77;;
830;SDS011;397;50.564;7.272;2022-11-15T13:30:49;3.43;;;2.17;;
830;SDS011;397;50.564;7.272;2022-11-15T13:33:32;3.40;;;2.07;;
830;SDS011;397;50.564;7.272;2022-11-15T13:36:05;4.40;;;2.40;;
830;SDS011;397;50.564;7.272;2022-11-15T13:38:37;2.87;;;2.00;;
830;SDS011;397;50.564;7.272;2022-11-15T13:43:46;3.97;;;1.80;;
830;SDS011;397;50.564;7.272;2022-11-15T13:46:19;3.53;;;1.90;;
830;SDS011;397;50.564;7.272;2022-11-15T13:49:04;2.40;;;1.70;;
830;SDS011;397;50.564;7.272;2022-11-15T13:54:08;4.17;;;2.17;;
830;SDS011;397;50.564;7.272;2022-11-15T13:56:37;2.40;;;1.63;;
830;SDS011;397;50.564;7.272;2022-11-15T13:59:14;4.80;;;2.03;;
830;SDS011;397;50.564;7.272;2022-11-15T14:01:47;2.33;;;1.53;;
830;SDS011;397;50.564;7.272;2022-11-15T14:04:18;2.30;;;1.50;;
830;SDS011;397;50.564;7.272;2022-11-15T14:06:50;2.23;;;1.50;;
830;SDS011;397;50.564;7.272;2022-11-15T14:09:39;5.83;;;1.70;;
830;SDS011;397;50.564;7.272;2022-11-15T14:14:59;3.17;;;2.00;;
830;SDS011;397;50.564;7.272;2022-11-15T14:19:59;3.00;;;2.13;;
830;SDS011;397;50.564;7.272;2022-11-15T14:22:27;2.80;;;1.70;;
830;SDS011;397;50.564;7.272;2022-11-15T14:25:16;3.63;;;2.13;;
830;SDS011;397;50.564;7.272;2022-11-15T14:30:32;3.07;;;2.03;;
830;SDS011;397;50.564;7.272;2022-11-15T14:33:00;3.50;;;1.97;;
830;SDS011;397;50.564;7.272;2022-11-15T14:35:28;3.30;;;2.20;;
830;SDS011;397;50.564;7.272;2022-11-15T14:37:58;2.27;;;1.73;;
830;SDS011;397;50.564;7.272;2022-11-15T14:40:25;4.00;;;2.53;;
830;SDS011;397;50.564;7.272;2022-11-15T14:42:52;3.27;;;2.00;;
830;SDS011;397;50.564;7.272;2022-11-15T14:45:20;3.90;;;2.50;;
830;SDS011;397;50.564;7.272;2022-11-15T14:47:48;5.93;;;2.97;;
830;SDS011;397;50.564;7.272;2022-11-15T14:50:17;4.30;;;2.27;;
830;SDS011;397;50.564;7.272;2022-11-15T14:52:48;3.40;;;2.47;;
830;SDS011;397;50.564;7.272;2022-11-15T14:55:24;3.27;;;2.40;;
830;SDS011;397;50.564;7.272;2022-11-15T14:57:53;7.83;;;2.30;;
830;SDS011;397;50.564;7.272;2022-11-15T15:00:21;4.13;;;2.40;;
830;SDS011;397;50.564;7.272;2022-11-15T15:02:50;3.73;;;2.17;;
830;SDS011;397;50.564;7.272;2022-11-15T15:05:20;3.23;;;2.27;;
830;SDS011;397;50.564;7.272;2022-11-15T15:07:52;6.53;;;3.67;;
830;SDS011;397;50.564;7.272;2022-11-15T15:10:19;4.03;;;2.37;;
830;SDS011;397;50.564;7.272;2022-11-15T15:12:47;4.20;;;2.07;;
830;SDS011;397;50.564;7.272;2022-11-15T15:15:21;2.93;;;2.43;;
830;SDS011;397;50.564;7.272;2022-11-15T15:17:49;3.43;;;1.90;;
830;SDS011;397;50.564;7.272;2022-11-15T15:20:16;4.87;;;3.60;;
830;SDS011;397;50.564;7.272;2022-11-15T15:22:44;3.97;;;2.53;;
830;SDS011;397;50.564;7.272;2022-11-15T15:25:28;2.97;;;2.30;;
830;SDS011;397;50.564;7.272;2022-11-15T15:27:59;5.43;;;2.70;;
830;SDS011;397;50.564;7.272;2022-11-15T15:30:28;3.40;;;1.97;;
830;SDS011;397;50.564;7.272;2022-11-15T15:32:57;3.47;;;2.57;;
830;SDS011;397;50.564;7.272;2022-11-15T15:35:25;3.40;;;2.17;;
830;SDS011;397;50.564;7.272;2022-11-15T15:37:55;3.30;;;2.20;;
830;SDS011;397;50.564;7.272;2022-11-15T15:40:23;3.60;;;2.37;;
830;SDS011;397;50.564;7.272;2022-11-15T15:42:52;2.63;;;1.80;;
830;SDS011;397;50.564;7.272;2022-11-15T15:45:19;4.07;;;2.87;;
830;SDS011;397;50.564;7.272;2022-11-15T15:47:47;3.40;;;2.40;;
830;SDS011;397;50.564;7.272;2022-11-15T15:50:20;4.83;;;2.43;;
830;SDS011;397;50.564;7.272;2022-11-15T15:52:49;3.87;;;2.77;;
830;SDS011;397;50.564;7.272;2022-11-15T15:55:18;4.23;;;2.70;;
830;SDS011;397;50.564;7.272;2022-11-15T15:57:45;4.10;;;2.60;;
830;SDS011;397;50.564;7.272;2022-11-15T16:00:14;3.37;;;2.87;;
830;SDS011;397;50.564;7.272;2022-11-15T16:02:42;3.10;;;2.40;;
830;SDS011;397;50.564;7.272;2022-11-15T16:05:10;2.90;;;2.40;;
830;SDS011;397;50.564;7.272;2022-11-15T16:07:39;4.27;;;3.40;;
830;SDS011;397;50.564;7.272;2022-11-15T16:10:14;4.33;;;2.60;;
830;SDS011;397;50.564;7.272;2022-11-15T16:12:47;4.10;;;2.70;;
830;SDS011;397;50.564;7.272;2022-11-15T16:15:15;6.00;;;2.60;;
830;SDS011;397;50.564;7.272;2022-11-15T16:17:57;4.63;;;3.13;;
830;SDS011;397;50.564;7.272;2022-11-15T16:20:36;4.47;;;3.20;;
830;SDS011;397;50.564;7.272;2022-11-15T16:23:09;6.10;;;3.83;;
830;SDS011;397;50.564;7.272;2022-11-15T16:25:44;8.67;;;4.03;;
830;SDS011;397;50.564;7.272;2022-11-15T16:28:31;3.63;;;2.63;;
830;SDS011;397;50.564;7.272;2022-11-15T16:33:32;3.63;;;2.90;;
830;SDS011;397;50.564;7.272;2022-11-15T16:35:59;4.00;;;2.70;;
830;SDS011;397;50.564;7.272;2022-11-15T16:38:27;3.77;;;3.37;;
830;SDS011;397;50.564;7.272;2022-11-15T16:40:54;4.53;;;2.63;;
830;SDS011;397;50.564;7.272;2022-11-15T16:43:22;4.10;;;2.90;;
830;SDS011;397;50.564;7.272;2022-11-15T16:45:50;3.60;;;2.97;;
830;SDS011;397;50.564;7.272;2022-11-15T16:48:24;4.53;;;3.20;;
830;SDS011;397;50.564;7.272;2022-11-15T16:50:57;3.23;;;2.90;;
830;SDS011;397;50.564;7.272;2022-11-15T16:53:25;6.27;;;3.13;;
830;SDS011;397;50.564;7.272;2022-11-15T16:55:56;3.60;;;2.80;;
830;SDS011;397;50.564;7.272;2022-11-15T16:58:24;3.73;;;2.53;;
830;SDS011;397;50.564;7.272;2022-11-15T17:00:52;3.53;;;2.80;;
830;SDS011;397;50.564;7.272;2022-11-15T17:03:21;3.30;;;2.90;;
830;SDS011;397;50.564;7.272;2022-11-15T17:05:49;4.77;;;3.60;;
830;SDS011;397;50.564;7.272;2022-11-15T17:08:17;3.87;;;2.87;;
830;SDS011;397;50.564;7.272;2022-11-15T17:10:47;3.30;;;2.57;;
830;SDS011;397;50.564;7.272;2022-11-15T17:13:14;3.80;;;3.07;;
830;SDS011;397;50.564;7.272;2022-11-15T17:15:42;4.57;;;3.40;;
830;SDS011;397;50.564;7.272;2022-11-15T17:18:10;3.67;;;2.80;;
830;SDS011;397;50.564;7.272;2022-11-15T17:20:40;3.60;;;3.20;;
830;SDS011;397;50.564;7.272;2022-11-15T17:23:11;4.23;;;3.20;;
830;SDS011;397;50.564;7.272;2022-11-15T17:25:39;3.60;;;2.70;;
830;SDS011;397;50.564;7.272;2022-11-15T17:28:06;4.37;;;3.40;;
830;SDS011;397;50.564;7.272;2022-11-15T17:30:34;4.93;;;3.00;;
830;SDS011;397;50.564;7.272;2022-11-15T17:33:01;6.60;;;3.47;;
830;SDS011;397;50.564;7.272;2022-11-15T17:35:29;5.13;;;3.70;;
830;SDS011;397;50.564;7.272;2022-11-15T17:37:57;5.17;;;3.87;;
830;SDS011;397;50.564;7.272;2022-11-15T17:40:24;5.40;;;4.70;;
830;SDS011;397;50.564;7.272;2022-11-15T17:42:52;6.23;;;5.30;;
830;SDS011;397;50.564;7.272;2022-11-15T17:45:21;7.33;;;3.97;;
830;SDS011;397;50.564;7.272;2022-11-15T17:47:49;4.27;;;3.47;;
830;SDS011;397;50.564;7.272;2022-11-15T17:50:16;5.30;;;4.33;;
830;SDS011;397;50.564;7.272;2022-11-15T17:52:44;5.53;;;4.07;;
830;SDS011;397;50.564;7.272;2022-11-15T17:55:11;4.17;;;3.77;;
830;SDS011;397;50.564;7.272;2022-11-15T17:57:39;6.77;;;3.13;;
830;SDS011;397;50.564;7.272;2022-11-15T18:00:07;5.77;;;3.67;;
830;SDS011;397;50.564;7.272;2022-11-15T18:02:35;5.37;;;3.93;;
830;SDS011;397;50.564;7.272;2022-11-15T18:05:02;5.03;;;4.27;;
830;SDS011;397;50.564;7.272;2022-11-15T18:07:31;7.00;;;4.07;;
830;SDS011;397;50.564;7.272;2022-11-15T18:09:58;4.40;;;4.00;;
830;SDS011;397;50.564;7.272;2022-11-15T18:12:25;6.13;;;4.70;;
830;SDS011;397;50.564;7.272;2022-11-15T18:14:53;9.43;;;3.73;;
830;SDS011;397;50.564;7.272;2022-11-15T18:17:21;4.40;;;3.80;;